Monday, August 20, 2018, 1:17 AM EDT
Back to Local

KVSF, Hartness State Airport

Location: Perkinsville, VT, United States Lat: 43.35
Local Time: 1:17 AM EDT ( 5:17 GMT) Lon: -72.517
Time Zone: US/Eastern Elev: 577 ft

Show me the last for .
Show Decoded

2018-08-20 00:54 METAR KVSF 200454Z AUTO 35003KT 10SM FEW002 15/15 A3017 RMK AO2 SLP215 T01500150
                 402500150 =
2018-08-19 23:54 METAR KVSF 200354Z AUTO 00000KT 10SM SCT055 16/16 A3016 RMK AO2 SLP213 T01560156
                 =
2018-08-19 22:54 METAR KVSF 200254Z AUTO 00000KT 10SM FEW055 16/16 A3016 RMK AO2 SLP213 T01610156
                 51017 =
2018-08-19 21:54 METAR KVSF 200154Z AUTO 00000KT 10SM CLR 17/16 A3015 RMK AO2 SLP208 T01670161 =
2018-08-19 20:54 METAR KVSF 200054Z AUTO 31003KT 10SM CLR 18/17 A3013 RMK AO2 SLP203 T01830167 =
2018-08-19 19:54 METAR KVSF 192354Z AUTO 33003KT 10SM CLR 19/17 A3011 RMK AO2 SLP195 T01940167
                 10250 20194 53015 =
2018-08-19 18:54 METAR KVSF 192254Z AUTO 00000KT 10SM CLR 22/16 A3009 RMK AO2 SLP189 T02220156 =
2018-08-19 17:54 METAR KVSF 192154Z AUTO 09004KT 10SM CLR 24/14 A3008 RMK AO2 SLP184 T02390139 =
2018-08-19 16:54 METAR KVSF 192054Z AUTO 12006KT 10SM CLR 24/13 A3006 RMK AO2 SLP179 T02440133
                 53001 =
2018-08-19 15:54 METAR KVSF 191954Z AUTO 07007KT 10SM SCT055 24/13 A3006 RMK AO2 SLP177 T02440128
                 =
2018-08-19 14:54 METAR KVSF 191854Z AUTO 08007KT 10SM CLR 25/13 A3006 RMK AO2 SLP178 T02500128 =
2018-08-19 13:54 METAR KVSF 191754Z AUTO 11010KT 10SM CLR 25/12 A3006 RMK AO2 SLP178 T02500122
                 10250 20161 56007 =
2018-08-19 12:54 METAR KVSF 191654Z AUTO 11011KT 070V140 10SM CLR 24/13 A3006 RMK AO2 SLP179
                 T02440133 =
2018-08-19 11:54 METAR KVSF 191554Z AUTO VRB05KT 10SM CLR 23/15 A3007 RMK AO2 SLP182 T02280150 =
2018-08-19 10:54 METAR KVSF 191454Z AUTO 11004KT 10SM CLR 22/16 A3008 RMK AO2 SLP185 T02170156
                 51009 =
2018-08-19 09:54 METAR KVSF 191354Z AUTO 00000KT 10SM CLR 22/16 A3008 RMK AO2 SLP184 T02170161 =
2018-08-19 08:54 METAR KVSF 191254Z AUTO 08004KT 10SM CLR 19/17 A3007 RMK AO2 SLP180 T01940167 =
2018-08-19 08:04 METAR KVSF 191204Z AUTO 00000KT 10SM FEW002 17/17 A3006 RMK AO2 T01720167 =
2018-08-19 07:54 METAR KVSF 191154Z AUTO 00000KT 9SM BKN002 16/16 A3006 RMK AO2 SLP177 70038
                 T01610161 10183 20150 51018 =
2018-08-19 07:44 METAR KVSF 191144Z AUTO 00000KT 4SM BR BKN002 16/16 A3005 RMK AO2 T01560156 =
2018-08-19 07:38 METAR KVSF 191138Z AUTO 00000KT 1SM BR VV002 16/16 A3005 RMK AO2 T01560156 =
2018-08-19 07:27 METAR KVSF 191127Z AUTO 00000KT 1/4SM FG VV002 16/16 A3005 RMK AO2 T01560156 =
2018-08-19 07:19 METAR KVSF 191119Z AUTO 00000KT 3/4SM BR VV002 16/16 A3005 RMK AO2 T01560156 =
2018-08-19 07:08 METAR KVSF 191108Z AUTO 00000KT 10SM SCT003 16/16 A3004 RMK AO2 T01610161 =
2018-08-19 07:01 METAR KVSF 191101Z AUTO 00000KT 10SM BKN003 16/16 A3004 RMK AO2 T01610161 =
2018-08-19 06:54 METAR KVSF 191054Z AUTO 00000KT 2 1/2SM BR BKN003 16/16 A3004 RMK AO2 SLP172
                 T01560156 =
2018-08-19 06:45 METAR KVSF 191045Z AUTO 00000KT 1 3/4SM BR OVC003 16/16 A3004 RMK AO2 T01560156
                 =
2018-08-19 06:30 METAR KVSF 191030Z AUTO 00000KT 10SM BKN002 15/15 A3003 RMK AO2 T01500150 =
2018-08-19 06:01 METAR KVSF 191001Z AUTO 00000KT 10SM SCT002 16/16 A3002 RMK AO2 T01560156 =
2018-08-19 05:54 METAR KVSF 190954Z AUTO 00000KT 9SM BKN002 16/16 A3002 RMK AO2 SLP165 T01560156
                 =
2018-08-19 05:46 METAR KVSF 190946Z AUTO 00000KT 3SM BR BKN002 16/16 A3002 RMK AO2 T01560156 =
2018-08-19 05:38 METAR KVSF 190938Z AUTO 00000KT 1 3/4SM BR BKN002 16/16 A3002 RMK AO2 VIS 1
                 1/4V3 T01560156 =
2018-08-19 05:29 METAR KVSF 190929Z AUTO 00000KT 1 1/4SM BR SCT003 16/16 A3001 RMK AO2 T01560156
                 =
2018-08-19 05:22 METAR KVSF 190922Z AUTO 00000KT 2SM BR FEW003 16/16 A3001 RMK AO2 VIS 1 1/2V5
                 T01610161 =
2018-08-19 04:54 METAR KVSF 190854Z AUTO 00000KT 10SM CLR 17/17 A3000 RMK AO2 SLP158 T01670167
                 53007 =
2018-08-19 03:54 METAR KVSF 190754Z AUTO 00000KT 10SM OVC049 18/18 A2999 RMK AO2 SLP153 T01780178
                 =
2018-08-19 02:54 METAR KVSF 190654Z AUTO 00000KT 10SM FEW026 BKN031 OVC048 18/18 A2998 RMK AO2
                 SLP150 T01780178 =
2018-08-19 02:51 METAR KVSF 190651Z AUTO 00000KT 10SM BKN029 OVC050 18/18 A2998 RMK AO2 =
2018-08-19 01:54 METAR KVSF 190554Z AUTO 00000KT 10SM FEW027 OVC050 18/18 A2997 RMK AO2 SLP148
                 60000 T01780178 10200 20178 51007 =

Support USWX by starting your Amazon purchase here.